Climatologie pour Saint-Brevin les Pins
Jour • Résumé pour avril 14, 2017 Système :  Métrique    Anglais   Mixte
« - 1 jour
+ 1 jour »
Jour Semaine Mois Année Personnalisé
  Maximum : Minimum : Moyenne :
Température sous abri : 16.2 °C 4.5 °C 10.5 °C
Point de rosée : 10.2 °C 3.9 °C 7.6 °C
Humidité : 97 % 63 % 83 %
Vitesse du vent : 17.7 km/h 0.0 km/h 4.2 km/h
Rafale : 22.5 km/h - -
Direction :- - SW
Pression : 1020.9 hPa 1018.5 hPa -
Précipitations : 0.0 mm    
Historical Graphs
 
 
Tableau de données pour avril 14, 2017
Heure Tempé Pt rosée Pression Vent Vitesse Rafale Humidité Taux pluie (/hr) Soleil
00:00 8.2 °C 7.5 °C 1019.2 hPa NNW 3.2 km/h 4.8 km/h 95 % 0.0 mm 0 W/m2
00:05 8.2 °C 7.5 °C 1019.2 hPa Calm   4.8 km/h 95 % 0.0 mm 0 W/m2
00:10 8.2 °C 7.4 °C 1019.2 hPa NNW 3.2 km/h 4.8 km/h 95 % 0.0 mm 0 W/m2
00:15 8.2 °C 7.4 °C 1019.2 hPa NNW 1.6 km/h 4.8 km/h 95 % 0.0 mm 0 W/m2
00:20 8.1 °C 7.4 °C 1019.2 hPa North 1.6 km/h 8.0 km/h 95 % 0.0 mm 0 W/m2
00:25 8.2 °C 7.4 °C 1019.2 hPa North 1.6 km/h 8.0 km/h 95 % 0.0 mm 0 W/m2
00:30 8.3 °C 7.5 °C 1019.2 hPa Calm   6.4 km/h 95 % 0.0 mm 0 W/m2
00:35 8.3 °C 7.6 °C 1019.2 hPa North 3.2 km/h 6.4 km/h 95 % 0.0 mm 0 W/m2
00:40 8.3 °C 7.6 °C 1019.2 hPa North 1.6 km/h 6.4 km/h 95 % 0.0 mm 0 W/m2
00:45 8.2 °C 7.5 °C 1019.2 hPa North 1.6 km/h 6.4 km/h 95 % 0.0 mm 0 W/m2
00:50 8.2 °C 7.5 °C 1019.2 hPa North 3.2 km/h 6.4 km/h 95 % 0.0 mm 0 W/m2
00:55 8.2 °C 7.5 °C 1019.2 hPa Calm   6.4 km/h 95 % 0.0 mm 0 W/m2
01:00 8.2 °C 7.4 °C 1019.2 hPa NE 1.6 km/h 8.0 km/h 95 % 0.0 mm 0 W/m2
01:05 8.2 °C 7.4 °C 1019.2 hPa Calm   8.0 km/h 95 % 0.0 mm 0 W/m2
01:10 8.0 °C 7.2 °C 1019.2 hPa NE 4.8 km/h 4.8 km/h 95 % 0.0 mm 0 W/m2
01:20 7.9 °C 7.2 °C 1019.2 hPa NNE 4.8 km/h 6.4 km/h 95 % 0.0 mm 0 W/m2
01:25 7.9 °C 7.1 °C 1019.2 hPa NNE 3.2 km/h 6.4 km/h 95 % 0.0 mm 0 W/m2
01:30 7.8 °C 7.1 °C 1019.2 hPa Calm   6.4 km/h 95 % 0.0 mm 0 W/m2
01:35 7.8 °C 7.0 °C 1019.2 hPa NE 3.2 km/h 6.4 km/h 95 % 0.0 mm 0 W/m2
01:40 8.0 °C 7.2 °C 1019.2 hPa NNE 1.6 km/h 6.4 km/h 95 % 0.0 mm 0 W/m2
01:45 8.2 °C 7.4 °C 1019.2 hPa NNE 1.6 km/h 4.8 km/h 95 % 0.0 mm 0 W/m2
01:50 8.2 °C 7.5 °C 1019.2 hPa NNE 4.8 km/h 4.8 km/h 95 % 0.0 mm 0 W/m2
01:55 8.2 °C 7.5 °C 1019.2 hPa Calm   4.8 km/h 95 % 0.0 mm 0 W/m2
02:00 8.3 °C 7.5 °C 1019.2 hPa Calm   4.8 km/h 95 % 0.0 mm 0 W/m2
02:05 8.4 °C 7.6 °C 1019.2 hPa Calm   4.8 km/h 95 % 0.0 mm 0 W/m2
02:10 8.4 °C 7.5 °C 1019.2 hPa Calm   4.8 km/h 94 % 0.0 mm 0 W/m2
02:15 8.4 °C 7.5 °C 1019.2 hPa NE 3.2 km/h 6.4 km/h 94 % 0.0 mm 0 W/m2
02:20 8.3 °C 7.4 °C 1019.2 hPa NNE 4.8 km/h 8.0 km/h 94 % 0.0 mm 0 W/m2
02:25 8.3 °C 7.2 °C 1019.2 hPa Calm   8.0 km/h 93 % 0.0 mm 0 W/m2
02:30 8.2 °C 7.1 °C 1018.8 hPa NE 1.6 km/h 6.4 km/h 93 % 0.0 mm 0 W/m2
02:40 7.9 °C 6.7 °C 1018.8 hPa NNE 4.8 km/h 6.4 km/h 92 % 0.0 mm 0 W/m2
02:45 7.8 °C 6.6 °C 1018.8 hPa NE 1.6 km/h 8.0 km/h 92 % 0.0 mm 0 W/m2
02:50 7.6 °C 6.4 °C 1018.8 hPa NE 1.6 km/h 8.0 km/h 92 % 0.0 mm 0 W/m2
02:55 7.6 °C 6.4 °C 1018.8 hPa Calm   4.8 km/h 92 % 0.0 mm 0 W/m2
03:00 7.6 °C 6.3 °C 1018.8 hPa Calm   4.8 km/h 92 % 0.0 mm 0 W/m2
03:05 7.4 °C 6.2 °C 1018.8 hPa NE 1.6 km/h 6.4 km/h 92 % 0.0 mm 0 W/m2
03:10 7.3 °C 6.1 °C 1018.8 hPa NE 1.6 km/h 6.4 km/h 92 % 0.0 mm 0 W/m2
03:15 7.3 °C 6.1 °C 1018.8 hPa Calm   4.8 km/h 92 % 0.0 mm 0 W/m2
03:20 7.2 °C 6.0 °C 1018.8 hPa Calm   4.8 km/h 92 % 0.0 mm 0 W/m2
03:25 7.1 °C 5.9 °C 1018.8 hPa Calm   4.8 km/h 92 % 0.0 mm 0 W/m2
03:30 6.9 °C 5.7 °C 1018.8 hPa NE 3.2 km/h 6.4 km/h 92 % 0.0 mm 0 W/m2
03:35 6.8 °C 5.8 °C 1018.8 hPa NNE 1.6 km/h 6.4 km/h 93 % 0.0 mm 0 W/m2
03:40 6.7 °C 5.7 °C 1018.8 hPa NNE 1.6 km/h 4.8 km/h 93 % 0.0 mm 0 W/m2
03:45 6.5 °C 5.3 °C 1018.8 hPa Calm   3.2 km/h 92 % 0.0 mm 0 W/m2
03:50 6.4 °C 5.4 °C 1018.5 hPa Calm   4.8 km/h 93 % 0.0 mm 0 W/m2
03:55 6.3 °C 5.3 °C 1018.5 hPa NNE 1.6 km/h 4.8 km/h 93 % 0.0 mm 0 W/m2
04:00 6.3 °C 5.2 °C 1018.5 hPa Calm   4.8 km/h 93 % 0.0 mm 0 W/m2
04:05 6.3 °C 5.4 °C 1018.5 hPa Calm   3.2 km/h 94 % 0.0 mm 0 W/m2
04:10 6.3 °C 5.4 °C 1018.5 hPa Calm   1.6 km/h 94 % 0.0 mm 0 W/m2
04:15 6.4 °C 5.3 °C 1018.8 hPa Calm   3.2 km/h 93 % 0.0 mm 0 W/m2
04:25 6.2 °C 5.1 °C 1018.8 hPa Calm     93 % 0.0 mm 0 W/m2
04:30 6.1 °C 5.0 °C 1018.8 hPa Calm     93 % 0.0 mm 0 W/m2
04:35 5.9 °C 4.9 °C 1018.8 hPa Calm     93 % 0.0 mm 0 W/m2
04:40 5.8 °C 4.7 °C 1018.8 hPa Calm     93 % 0.0 mm 0 W/m2
04:45 5.7 °C 4.8 °C 1018.8 hPa Calm   4.8 km/h 94 % 0.0 mm 0 W/m2
04:50 5.6 °C 4.7 °C 1018.8 hPa NNE 3.2 km/h 4.8 km/h 94 % 0.0 mm 0 W/m2
04:55 5.5 °C 4.6 °C 1018.8 hPa Calm   6.4 km/h 94 % 0.0 mm 0 W/m2
05:00 5.4 °C 4.7 °C 1018.8 hPa Calm   6.4 km/h 95 % 0.0 mm 0 W/m2
05:05 5.4 °C 4.7 °C 1018.8 hPa Calm   3.2 km/h 95 % 0.0 mm 0 W/m2
05:10 5.7 °C 4.9 °C 1018.8 hPa Calm   3.2 km/h 95 % 0.0 mm 0 W/m2
05:15 5.6 °C 4.7 °C 1018.8 hPa Calm   1.6 km/h 94 % 0.0 mm 0 W/m2
05:20 5.4 °C 4.5 °C 1018.8 hPa Calm     94 % 0.0 mm 0 W/m2
05:25 5.3 °C 4.4 °C 1018.8 hPa Calm     94 % 0.0 mm 0 W/m2
05:30 5.2 °C 4.5 °C 1018.8 hPa Calm     95 % 0.0 mm 0 W/m2
05:35 5.2 °C 4.4 °C 1018.8 hPa Calm     95 % 0.0 mm 0 W/m2
05:40 5.2 °C 4.3 °C 1018.8 hPa Calm     94 % 0.0 mm 0 W/m2
05:45 5.2 °C 4.4 °C 1018.5 hPa Calm     95 % 0.0 mm 0 W/m2
05:55 5.4 °C 4.7 °C 1018.5 hPa Calm     95 % 0.0 mm 0 W/m2
06:00 5.4 °C 4.7 °C 1018.5 hPa Calm     95 % 0.0 mm 0 W/m2
06:05 5.6 °C 4.8 °C 1018.5 hPa Calm     95 % 0.0 mm 0 W/m2
06:10 5.5 °C 4.8 °C 1018.5 hPa Calm     95 % 0.0 mm 0 W/m2
06:15 5.3 °C 4.5 °C 1018.5 hPa Calm     95 % 0.0 mm 0 W/m2
06:20 5.2 °C 4.5 °C 1018.5 hPa Calm     95 % 0.0 mm 0 W/m2
06:25 5.2 °C 4.4 °C 1018.5 hPa Calm     95 % 0.0 mm 0 W/m2
06:30 5.0 °C 4.3 °C 1018.5 hPa Calm   1.6 km/h 95 % 0.0 mm 0 W/m2
06:40 4.8 °C 4.1 °C 1018.8 hPa Calm   1.6 km/h 95 % 0.0 mm 0 W/m2
06:45 4.6 °C 3.9 °C 1018.8 hPa Calm   1.6 km/h 95 % 0.0 mm 0 W/m2
06:50 4.6 °C 4.0 °C 1018.8 hPa Calm   3.2 km/h 96 % 0.0 mm 0 W/m2
06:55 4.5 °C 3.9 °C 1018.8 hPa Calm   3.2 km/h 96 % 0.0 mm 0 W/m2
07:00 4.6 °C 4.0 °C 1018.8 hPa Calm   1.6 km/h 96 % 0.0 mm 0 W/m2
07:05 4.6 °C 4.0 °C 1018.8 hPa Calm     96 % 0.0 mm 0 W/m2
07:10 4.7 °C 4.1 °C 1018.8 hPa Calm   1.6 km/h 96 % 0.0 mm 0 W/m2
07:15 4.8 °C 4.2 °C 1019.2 hPa Calm   1.6 km/h 96 % 0.0 mm 0 W/m2
07:20 4.8 °C 4.2 °C 1019.2 hPa Calm     96 % 0.0 mm 0 W/m2
07:25 4.7 °C 4.1 °C 1019.2 hPa Calm     96 % 0.0 mm 5 W/m2
07:30 4.6 °C 4.0 °C 1019.2 hPa Calm     96 % 0.0 mm 9 W/m2
07:35 4.7 °C 4.1 °C 1019.2 hPa Calm     96 % 0.0 mm 12 W/m2
07:40 4.7 °C 4.1 °C 1019.2 hPa Calm     96 % 0.0 mm 16 W/m2
07:45 4.9 °C 4.4 °C 1019.5 hPa Calm     96 % 0.0 mm 19 W/m2
07:50 5.1 °C 4.5 °C 1019.5 hPa Calm     96 % 0.0 mm 25 W/m2
07:55 5.2 °C 4.6 °C 1019.5 hPa Calm     96 % 0.0 mm 32 W/m2
08:00 5.4 °C 5.0 °C 1019.5 hPa Calm     97 % 0.0 mm 35 W/m2
08:10 5.9 °C 5.4 °C 1019.5 hPa Calm   3.2 km/h 97 % 0.0 mm 46 W/m2
08:15 6.1 °C 5.7 °C 1019.5 hPa NNE 3.2 km/h 3.2 km/h 97 % 0.0 mm 56 W/m2
08:20 6.4 °C 5.9 °C 1019.5 hPa North 1.6 km/h 6.4 km/h 97 % 0.0 mm 56 W/m2
08:25 6.7 °C 6.2 °C 1019.9 hPa NNE 3.2 km/h 6.4 km/h 97 % 0.0 mm 69 W/m2
08:30 7.1 °C 6.6 °C 1019.9 hPa Calm   8.0 km/h 97 % 0.0 mm 79 W/m2
08:35 7.4 °C 6.9 °C 1019.9 hPa Calm   8.0 km/h 97 % 0.0 mm 91 W/m2
08:40 7.7 °C 7.3 °C 1019.9 hPa Calm   4.8 km/h 97 % 0.0 mm 88 W/m2
08:45 8.0 °C 7.6 °C 1019.9 hPa Calm   4.8 km/h 97 % 0.0 mm 114 W/m2
08:55 8.4 °C 7.9 °C 1019.9 hPa NNE 1.6 km/h 6.4 km/h 97 % 0.0 mm 127 W/m2
09:00 8.6 °C 8.0 °C 1019.9 hPa NNE 3.2 km/h 6.4 km/h 96 % 0.0 mm 132 W/m2
09:05 8.7 °C 8.1 °C 1020.2 hPa NNE 4.8 km/h 4.8 km/h 96 % 0.0 mm 156 W/m2
09:10 8.9 °C 8.3 °C 1020.2 hPa Calm   8.0 km/h 96 % 0.0 mm 155 W/m2
09:15 9.2 °C 8.4 °C 1019.9 hPa North 1.6 km/h 8.0 km/h 95 % 0.0 mm 209 W/m2
09:20 9.3 °C 8.6 °C 1019.9 hPa North 1.6 km/h 8.0 km/h 95 % 0.0 mm 193 W/m2
09:25 9.6 °C 8.7 °C 1019.9 hPa Calm   9.7 km/h 94 % 0.0 mm 295 W/m2
09:30 9.8 °C 8.7 °C 1020.2 hPa North 1.6 km/h 9.7 km/h 93 % 0.0 mm 234 W/m2
09:35 10.0 °C 8.8 °C 1020.2 hPa NNE 9.7 km/h 11.3 km/h 92 % 0.0 mm 178 W/m2
09:40 10.0 °C 8.6 °C 1020.2 hPa North 3.2 km/h 12.9 km/h 91 % 0.0 mm 338 W/m2
09:45 10.3 °C 9.1 °C 1020.2 hPa North 9.7 km/h 12.9 km/h 92 % 0.0 mm 399 W/m2
09:50 10.6 °C 9.0 °C 1020.2 hPa North 1.6 km/h 11.3 km/h 90 % 0.0 mm 188 W/m2
09:55 10.7 °C 8.9 °C 1020.2 hPa NE 3.2 km/h 11.3 km/h 89 % 0.0 mm 441 W/m2
10:00 10.9 °C 8.9 °C 1020.2 hPa NNW 6.4 km/h 11.3 km/h 87 % 0.0 mm 276 W/m2
10:05 11.1 °C 8.8 °C 1020.2 hPa North 3.2 km/h 11.3 km/h 86 % 0.0 mm 471 W/m2
10:15 11.4 °C 8.5 °C 1020.2 hPa NE 9.7 km/h 12.9 km/h 82 % 0.0 mm 316 W/m2
10:20 11.7 °C 8.4 °C 1020.2 hPa NE 9.7 km/h 14.5 km/h 80 % 0.0 mm 336 W/m2
10:25 11.5 °C 7.8 °C 1020.2 hPa NNE 8.0 km/h 14.5 km/h 78 % 0.0 mm 494 W/m2
10:30 11.7 °C 7.8 °C 1020.2 hPa Calm   14.5 km/h 77 % 0.0 mm 436 W/m2
10:35 12.2 °C 8.3 °C 1020.2 hPa Calm   14.5 km/h 77 % 0.0 mm 517 W/m2
10:40 12.5 °C 8.2 °C 1020.2 hPa NE 11.3 km/h 14.5 km/h 75 % 0.0 mm 501 W/m2
10:45 12.4 °C 8.1 °C 1020.2 hPa NNE 8.0 km/h 14.5 km/h 75 % 0.0 mm 547 W/m2
10:50 12.6 °C 8.5 °C 1020.2 hPa ENE 11.3 km/h 14.5 km/h 76 % 0.0 mm 564 W/m2
10:55 12.9 °C 8.6 °C 1020.2 hPa NNE 4.8 km/h 14.5 km/h 75 % 0.0 mm 531 W/m2
11:00 12.6 °C 7.7 °C 1020.2 hPa North 6.4 km/h 12.9 km/h 72 % 0.0 mm 599 W/m2
11:05 12.8 °C 8.1 °C 1020.2 hPa NE 8.0 km/h 12.9 km/h 73 % 0.0 mm 615 W/m2
11:10 13.3 °C 8.5 °C 1020.2 hPa North 1.6 km/h 12.9 km/h 73 % 0.0 mm 629 W/m2
11:15 13.5 °C 8.5 °C 1020.2 hPa NNE 1.6 km/h 12.9 km/h 72 % 0.0 mm 638 W/m2
11:20 13.7 °C 8.5 °C 1020.2 hPa NNW 11.3 km/h 12.9 km/h 71 % 0.0 mm 633 W/m2
11:25 13.6 °C 8.2 °C 1020.2 hPa NE 9.7 km/h 12.9 km/h 70 % 0.0 mm 570 W/m2
11:30 13.6 °C 8.2 °C 1020.2 hPa NNE 1.6 km/h 11.3 km/h 70 % 0.0 mm 545 W/m2
11:35 13.5 °C 8.1 °C 1020.5 hPa NW 9.7 km/h 11.3 km/h 70 % 0.0 mm 476 W/m2
11:40 13.2 °C 7.6 °C 1020.5 hPa WNW 4.8 km/h 11.3 km/h 69 % 0.0 mm 392 W/m2
11:45 13.2 °C 8.0 °C 1020.5 hPa WNW 8.0 km/h 11.3 km/h 71 % 0.0 mm 515 W/m2
11:50 13.4 °C 8.8 °C 1020.5 hPa Calm   11.3 km/h 74 % 0.0 mm 355 W/m2
11:55 13.5 °C 8.1 °C 1020.2 hPa NNW 6.4 km/h 11.3 km/h 70 % 0.0 mm 371 W/m2
12:00 13.4 °C 8.4 °C 1020.5 hPa NNW 8.0 km/h 8.0 km/h 72 % 0.0 mm 448 W/m2
12:05 13.7 °C 8.3 °C 1020.5 hPa North 3.2 km/h 9.7 km/h 70 % 0.0 mm 533 W/m2
12:10 13.8 °C 8.4 °C 1020.5 hPa NNW 3.2 km/h 12.9 km/h 70 % 0.0 mm 279 W/m2
12:15 13.4 °C 8.5 °C 1020.5 hPa NW 3.2 km/h 12.9 km/h 72 % 0.0 mm 279 W/m2
12:20 13.1 °C 7.5 °C 1020.5 hPa WNW 4.8 km/h 9.7 km/h 69 % 0.0 mm 257 W/m2
12:25 12.9 °C 8.0 °C 1020.5 hPa NW 4.8 km/h 9.7 km/h 72 % 0.0 mm 308 W/m2
12:30 13.3 °C 8.3 °C 1020.5 hPa WNW 3.2 km/h 9.7 km/h 72 % 0.0 mm 396 W/m2
12:35 13.3 °C 8.0 °C 1020.5 hPa North 8.0 km/h 11.3 km/h 70 % 0.0 mm 287 W/m2
12:40 13.4 °C 8.7 °C 1020.5 hPa North 8.0 km/h 11.3 km/h 73 % 0.0 mm 230 W/m2
12:45 13.4 °C 8.7 °C 1020.5 hPa NNW 3.2 km/h 11.3 km/h 73 % 0.0 mm 302 W/m2
12:50 13.6 °C 8.4 °C 1020.5 hPa West 1.6 km/h 12.9 km/h 71 % 0.0 mm 332 W/m2
12:55 13.4 °C 8.3 °C 1020.5 hPa West 4.8 km/h 12.9 km/h 71 % 0.0 mm 229 W/m2
13:00 13.2 °C 8.1 °C 1020.5 hPa West 11.3 km/h 12.9 km/h 71 % 0.0 mm 190 W/m2
13:05 12.8 °C 7.6 °C 1020.5 hPa SW 3.2 km/h 11.3 km/h 71 % 0.0 mm 192 W/m2
13:10 12.7 °C 7.8 °C 1020.5 hPa SW 3.2 km/h 11.3 km/h 72 % 0.0 mm 232 W/m2
13:15 12.8 °C 7.9 °C 1020.5 hPa SW 3.2 km/h 12.9 km/h 72 % 0.0 mm 283 W/m2
13:20 12.8 °C 7.9 °C 1020.5 hPa WSW 4.8 km/h 12.9 km/h 72 % 0.0 mm 404 W/m2
13:25 13.1 °C 8.3 °C 1020.2 hPa SW 1.6 km/h 11.3 km/h 73 % 0.0 mm 397 W/m2
13:30 13.4 °C 8.9 °C 1020.2 hPa Calm   8.0 km/h 74 % 0.0 mm 276 W/m2
13:35 13.8 °C 8.5 °C 1020.2 hPa NW 1.6 km/h 8.0 km/h 70 % 0.0 mm 258 W/m2
13:40 13.8 °C 8.7 °C 1020.2 hPa NNW 3.2 km/h 9.7 km/h 71 % 0.0 mm 223 W/m2
13:45 13.8 °C 8.8 °C 1020.2 hPa NW 4.8 km/h 9.7 km/h 72 % 0.0 mm 253 W/m2
13:50 14.3 °C 8.9 °C 1020.2 hPa WNW 6.4 km/h 12.9 km/h 70 % 0.0 mm 272 W/m2
13:55 15.9 °C 9.4 °C 1019.9 hPa NW 4.8 km/h 14.5 km/h 65 % 0.0 mm 1160 W/m2
14:00 16.2 °C 10.0 °C 1020.2 hPa NNW 4.8 km/h 16.1 km/h 67 % 0.0 mm 471 W/m2
14:05 15.3 °C 8.8 °C 1019.9 hPa NNE 8.0 km/h 16.1 km/h 65 % 0.0 mm 374 W/m2
14:10 14.6 °C 8.1 °C 1019.9 hPa WNW 3.2 km/h 14.5 km/h 65 % 0.0 mm 318 W/m2
14:15 14.5 °C 8.7 °C 1019.9 hPa NE 3.2 km/h 11.3 km/h 68 % 0.0 mm 422 W/m2
14:20 14.8 °C 7.8 °C 1019.9 hPa WNW 3.2 km/h 11.3 km/h 63 % 0.0 mm 499 W/m2
14:25 15.5 °C 9.6 °C 1019.9 hPa NE 6.4 km/h 16.1 km/h 68 % 0.0 mm 420 W/m2
14:30 15.2 °C 8.9 °C 1019.9 hPa North 8.0 km/h 16.1 km/h 66 % 0.0 mm 366 W/m2
14:35 15.0 °C 9.4 °C 1019.9 hPa West 1.6 km/h 12.9 km/h 69 % 0.0 mm 404 W/m2
14:40 15.4 °C 10.2 °C 1019.9 hPa North 3.2 km/h 12.9 km/h 71 % 0.0 mm 480 W/m2
14:50 14.7 °C 9.0 °C 1020.2 hPa North 1.6 km/h 11.3 km/h 69 % 0.0 mm 274 W/m2
14:55 14.3 °C 8.1 °C 1020.2 hPa Calm   8.0 km/h 66 % 0.0 mm 267 W/m2
15:00 14.3 °C 8.4 °C 1020.2 hPa NW 3.2 km/h 9.7 km/h 68 % 0.0 mm 271 W/m2
15:05 14.1 °C 8.7 °C 1020.2 hPa WNW 8.0 km/h 14.5 km/h 70 % 0.0 mm 262 W/m2
15:10 13.8 °C 9.1 °C 1020.2 hPa WNW 6.4 km/h 22.5 km/h 73 % 0.0 mm 290 W/m2
15:15 13.4 °C 8.9 °C 1020.2 hPa WNW 4.8 km/h 22.5 km/h 74 % 0.0 mm 396 W/m2
15:20 13.6 °C 8.8 °C 1020.2 hPa WNW 9.7 km/h 19.3 km/h 73 % 0.0 mm 278 W/m2
15:25 13.4 °C 9.0 °C 1020.2 hPa West 11.3 km/h 19.3 km/h 75 % 0.0 mm 251 W/m2
15:30 13.3 °C 9.1 °C 1020.2 hPa West 1.6 km/h 20.9 km/h 76 % 0.0 mm 265 W/m2
15:35 13.3 °C 9.0 °C 1020.2 hPa WNW 11.3 km/h 20.9 km/h 75 % 0.0 mm 287 W/m2
15:40 13.4 °C 9.3 °C 1020.2 hPa West 6.4 km/h 19.3 km/h 76 % 0.0 mm 329 W/m2
15:45 13.7 °C 9.2 °C 1019.9 hPa WNW 4.8 km/h 14.5 km/h 74 % 0.0 mm 269 W/m2
15:50 13.5 °C 8.8 °C 1019.9 hPa WNW 8.0 km/h 16.1 km/h 73 % 0.0 mm 239 W/m2
15:55 13.7 °C 9.6 °C 1019.9 hPa West 9.7 km/h 16.1 km/h 76 % 0.0 mm 330 W/m2
16:00 13.7 °C 9.0 °C 1019.9 hPa West 6.4 km/h 19.3 km/h 73 % 0.0 mm 283 W/m2
16:05 13.9 °C 9.3 °C 1019.9 hPa WSW 3.2 km/h 19.3 km/h 74 % 0.0 mm 316 W/m2
16:10 14.1 °C 9.5 °C 1019.9 hPa West 8.0 km/h 16.1 km/h 74 % 0.0 mm 431 W/m2
16:15 14.2 °C 9.2 °C 1019.9 hPa WNW 9.7 km/h 16.1 km/h 72 % 0.0 mm 531 W/m2
16:20 14.3 °C 9.7 °C 1019.9 hPa WSW 1.6 km/h 17.7 km/h 74 % 0.0 mm 357 W/m2
16:25 14.4 °C 8.8 °C 1019.9 hPa West 6.4 km/h 17.7 km/h 69 % 0.0 mm 534 W/m2
16:30 14.6 °C 9.0 °C 1019.9 hPa West 14.5 km/h 19.3 km/h 69 % 0.0 mm 383 W/m2
16:35 14.3 °C 8.9 °C 1019.9 hPa NNW 6.4 km/h 19.3 km/h 70 % 0.0 mm 336 W/m2
16:40 13.9 °C 9.0 °C 1019.5 hPa West 16.1 km/h 19.3 km/h 72 % 0.0 mm 290 W/m2
16:45 13.7 °C 9.1 °C 1019.9 hPa West 16.1 km/h 19.3 km/h 74 % 0.0 mm 366 W/m2
16:50 13.8 °C 8.9 °C 1019.5 hPa West 17.7 km/h 22.5 km/h 72 % 0.0 mm 366 W/m2
16:55 13.6 °C 8.6 °C 1019.9 hPa NW 8.0 km/h 22.5 km/h 72 % 0.0 mm 318 W/m2
17:00 13.4 °C 8.7 °C 1019.5 hPa West 9.7 km/h 20.9 km/h 73 % 0.0 mm 262 W/m2
17:05 13.3 °C 8.8 °C 1019.9 hPa WSW 14.5 km/h 22.5 km/h 74 % 0.0 mm 230 W/m2
17:10 13.2 °C 8.6 °C 1019.9 hPa NW 11.3 km/h 22.5 km/h 74 % 0.0 mm 271 W/m2
17:15 13.2 °C 8.9 °C 1019.9 hPa WNW 8.0 km/h 22.5 km/h 75 % 0.0 mm 297 W/m2
17:20 13.5 °C 9.5 °C 1019.9 hPa West 4.8 km/h 22.5 km/h 77 % 0.0 mm 346 W/m2
17:25 13.8 °C 9.4 °C 1019.9 hPa SW 8.0 km/h 19.3 km/h 75 % 0.0 mm 323 W/m2
17:30 13.7 °C 8.9 °C 1019.9 hPa West 12.9 km/h 20.9 km/h 73 % 0.0 mm 265 W/m2
17:35 13.3 °C 8.8 °C 1019.9 hPa WNW 9.7 km/h 20.9 km/h 74 % 0.0 mm 253 W/m2
17:40 13.2 °C 8.6 °C 1019.5 hPa SW 6.4 km/h 22.5 km/h 74 % 0.0 mm 209 W/m2
17:45 13.2 °C 8.8 °C 1019.5 hPa WSW 11.3 km/h 22.5 km/h 75 % 0.0 mm 250 W/m2
17:50 13.1 °C 8.7 °C 1019.5 hPa WSW 12.9 km/h 17.7 km/h 75 % 0.0 mm 248 W/m2
17:55 13.1 °C 8.7 °C 1019.5 hPa West 8.0 km/h 20.9 km/h 75 % 0.0 mm 197 W/m2
18:00 13.2 °C 8.9 °C 1019.5 hPa WNW 9.7 km/h 20.9 km/h 75 % 0.0 mm 174 W/m2
18:05 13.0 °C 8.7 °C 1019.5 hPa WNW 4.8 km/h 20.9 km/h 75 % 0.0 mm 199 W/m2
18:10 13.0 °C 8.9 °C 1019.5 hPa West 14.5 km/h 20.9 km/h 76 % 0.0 mm 190 W/m2
18:15 13.1 °C 8.7 °C 1019.5 hPa NW 9.7 km/h 20.9 km/h 75 % 0.0 mm 220 W/m2
18:20 13.3 °C 9.1 °C 1019.5 hPa WNW 6.4 km/h 20.9 km/h 76 % 0.0 mm 214 W/m2
18:25 13.2 °C 8.8 °C 1019.5 hPa WNW 14.5 km/h 22.5 km/h 75 % 0.0 mm 223 W/m2
18:30 13.2 °C 8.8 °C 1019.5 hPa West 17.7 km/h 22.5 km/h 75 % 0.0 mm 230 W/m2
18:40 13.1 °C 8.9 °C 1019.5 hPa WSW 8.0 km/h 19.3 km/h 76 % 0.0 mm 202 W/m2
18:45 13.3 °C 8.9 °C 1019.2 hPa West 11.3 km/h 20.9 km/h 75 % 0.0 mm 301 W/m2
18:50 13.4 °C 8.8 °C 1019.2 hPa WNW 4.8 km/h 20.9 km/h 74 % 0.0 mm 285 W/m2
18:55 13.5 °C 9.0 °C 1019.2 hPa WSW 9.7 km/h 19.3 km/h 74 % 0.0 mm 220 W/m2
19:00 13.1 °C 8.5 °C 1019.2 hPa West 8.0 km/h 19.3 km/h 74 % 0.0 mm 95 W/m2
19:05 12.7 °C 8.6 °C 1019.2 hPa WSW 9.7 km/h 19.3 km/h 76 % 0.0 mm 91 W/m2
19:10 12.6 °C 8.6 °C 1019.2 hPa WSW 4.8 km/h 19.3 km/h 77 % 0.0 mm 90 W/m2
19:15 12.6 °C 8.4 °C 1019.2 hPa WNW 4.8 km/h 19.3 km/h 76 % 0.0 mm 91 W/m2
19:20 12.6 °C 8.6 °C 1019.2 hPa West 4.8 km/h 19.3 km/h 77 % 0.0 mm 93 W/m2
19:25 12.6 °C 8.3 °C 1019.2 hPa WNW 3.2 km/h 16.1 km/h 75 % 0.0 mm 113 W/m2
19:30 12.9 °C 8.8 °C 1019.2 hPa WNW 4.8 km/h 14.5 km/h 76 % 0.0 mm 128 W/m2
19:35 13.1 °C 8.7 °C 1019.2 hPa WNW 6.4 km/h 16.1 km/h 75 % 0.0 mm 132 W/m2
19:40 13.1 °C 8.8 °C 1019.2 hPa NW 6.4 km/h 17.7 km/h 75 % 0.0 mm 109 W/m2
19:45 13.1 °C 8.7 °C 1019.2 hPa WNW 8.0 km/h 17.7 km/h 75 % 0.0 mm 90 W/m2
19:50 12.9 °C 8.8 °C 1019.2 hPa NW 9.7 km/h 17.7 km/h 76 % 0.0 mm 62 W/m2
19:55 12.6 °C 8.3 °C 1019.2 hPa WNW 6.4 km/h 14.5 km/h 75 % 0.0 mm 54 W/m2
20:00 12.4 °C 8.3 °C 1019.2 hPa WNW 3.2 km/h 16.1 km/h 76 % 0.0 mm 54 W/m2
20:10 12.3 °C 8.4 °C 1019.2 hPa WNW 1.6 km/h 14.5 km/h 77 % 0.0 mm 40 W/m2
20:15 12.2 °C 8.3 °C 1019.2 hPa WSW 4.8 km/h 14.5 km/h 77 % 0.0 mm 33 W/m2
20:20 12.2 °C 8.4 °C 1019.2 hPa West 9.7 km/h 14.5 km/h 78 % 0.0 mm 28 W/m2
20:25 12.1 °C 8.1 °C 1019.2 hPa WNW 8.0 km/h 14.5 km/h 77 % 0.0 mm 23 W/m2
20:30 12.0 °C 8.1 °C 1019.2 hPa West 4.8 km/h 12.9 km/h 77 % 0.0 mm 19 W/m2
20:35 12.0 °C 8.3 °C 1019.2 hPa West 1.6 km/h 12.9 km/h 78 % 0.0 mm 14 W/m2
20:40 11.9 °C 8.2 °C 1019.2 hPa WNW 3.2 km/h 14.5 km/h 78 % 0.0 mm 9 W/m2
20:45 11.9 °C 8.2 °C 1019.2 hPa West 1.6 km/h 14.5 km/h 78 % 0.0 mm 5 W/m2
20:50 11.9 °C 8.2 °C 1019.2 hPa WNW 6.4 km/h 11.3 km/h 78 % 0.0 mm 0 W/m2
20:55 11.9 °C 8.4 °C 1019.2 hPa WNW 4.8 km/h 12.9 km/h 79 % 0.0 mm 0 W/m2
21:00 11.8 °C 8.1 °C 1019.2 hPa NW 8.0 km/h 14.5 km/h 78 % 0.0 mm 0 W/m2
21:05 11.8 °C 8.3 °C 1019.2 hPa WNW 9.7 km/h 14.5 km/h 79 % 0.0 mm 0 W/m2
21:10 11.8 °C 8.3 °C 1019.5 hPa West 3.2 km/h 11.3 km/h 79 % 0.0 mm 0 W/m2
21:15 11.7 °C 8.3 °C 1019.5 hPa NW 8.0 km/h 11.3 km/h 80 % 0.0 mm 0 W/m2
21:20 11.8 °C 8.4 °C 1019.5 hPa West 1.6 km/h 14.5 km/h 80 % 0.0 mm 0 W/m2
21:25 11.7 °C 8.6 °C 1019.5 hPa NW 6.4 km/h 14.5 km/h 81 % 0.0 mm 0 W/m2
21:30 11.7 °C 8.7 °C 1019.5 hPa WNW 6.4 km/h 16.1 km/h 82 % 0.0 mm 0 W/m2
21:35 11.8 °C 8.8 °C 1019.5 hPa WNW 6.4 km/h 16.1 km/h 82 % 0.0 mm 0 W/m2
21:40 11.8 °C 8.9 °C 1019.5 hPa West 4.8 km/h 14.5 km/h 82 % 0.0 mm 0 W/m2
21:45 11.9 °C 8.9 °C 1019.9 hPa WNW 6.4 km/h 16.1 km/h 82 % 0.0 mm 0 W/m2
21:50 11.9 °C 8.9 °C 1019.9 hPa WNW 6.4 km/h 16.1 km/h 82 % 0.0 mm 0 W/m2
21:55 11.9 °C 8.9 °C 1019.9 hPa WNW 4.8 km/h 16.1 km/h 82 % 0.0 mm 0 W/m2
22:00 11.9 °C 8.9 °C 1019.9 hPa NW 14.5 km/h 16.1 km/h 82 % 0.0 mm 0 W/m2
22:05 11.8 °C 9.0 °C 1019.9 hPa NNW 4.8 km/h 16.1 km/h 83 % 0.0 mm 0 W/m2
22:10 11.8 °C 9.0 °C 1019.9 hPa NW 11.3 km/h 16.1 km/h 83 % 0.0 mm 0 W/m2
22:20 11.7 °C 9.1 °C 1020.2 hPa NW 11.3 km/h 14.5 km/h 84 % 0.0 mm 0 W/m2
22:25 11.7 °C 8.9 °C 1020.2 hPa Calm   14.5 km/h 83 % 0.0 mm 0 W/m2
22:30 11.6 °C 9.0 °C 1020.2 hPa NW 4.8 km/h 11.3 km/h 84 % 0.0 mm 0 W/m2
22:40 11.6 °C 8.8 °C 1020.2 hPa NW 1.6 km/h 9.7 km/h 83 % 0.0 mm 0 W/m2
22:45 11.4 °C 8.8 °C 1020.2 hPa North 4.8 km/h 9.7 km/h 84 % 0.0 mm 0 W/m2
22:50 11.3 °C 8.7 °C 1020.2 hPa Calm   9.7 km/h 84 % 0.0 mm 0 W/m2
22:55 11.3 °C 8.7 °C 1020.2 hPa NW 3.2 km/h 3.2 km/h 84 % 0.0 mm 0 W/m2
23:00 11.3 °C 8.7 °C 1020.2 hPa Calm   4.8 km/h 84 % 0.0 mm 0 W/m2
23:05 11.2 °C 8.8 °C 1020.5 hPa Calm   8.0 km/h 85 % 0.0 mm 0 W/m2
23:10 11.2 °C 8.6 °C 1020.5 hPa NNW 1.6 km/h 8.0 km/h 84 % 0.0 mm 0 W/m2
23:15 11.1 °C 8.5 °C 1020.5 hPa Calm   8.0 km/h 84 % 0.0 mm 0 W/m2
23:20 11.1 °C 8.5 °C 1020.5 hPa NNW 3.2 km/h 6.4 km/h 84 % 0.0 mm 0 W/m2
23:25 11.1 °C 8.3 °C 1020.5 hPa Calm   6.4 km/h 83 % 0.0 mm 0 W/m2
23:30 11.1 °C 8.3 °C 1020.5 hPa NW 8.0 km/h 8.0 km/h 83 % 0.0 mm 0 W/m2
23:35 11.1 °C 8.3 °C 1020.5 hPa NW 1.6 km/h 9.7 km/h 83 % 0.0 mm 0 W/m2
23:40 11.2 °C 8.4 °C 1020.5 hPa West 6.4 km/h 9.7 km/h 83 % 0.0 mm 0 W/m2
23:45 11.2 °C 8.4 °C 1020.9 hPa WNW 8.0 km/h 9.7 km/h 83 % 0.0 mm 0 W/m2
23:50 11.3 °C 8.2 °C 1020.9 hPa WNW 6.4 km/h 9.7 km/h 81 % 0.0 mm 0 W/m2
23:55 11.4 °C 8.4 °C 1020.9 hPa WNW 6.4 km/h 8.0 km/h 82 % 0.0 mm 0 W/m2
Avec l'autorisation de Weather Underground - 1.75 mb